Nyala, Nevada Weather observations

Data are for observation ending at time listed.
 Day   Time    Ave.   Ave.  Ave.  Vector   Max.   Stn.    Total    Solar   Ave.  
  of    of     Air    Rel.  Wind   Wind    Wind   Baro.  Precip.   Rad.    Soil  
Year   Day     Temp.  Hum.  Speed  Dir.    Gust   Pres.                    Temp. 
2015   (PST)    F      %     mph   deg.    mph     mb.     in.     W/m2     F   
------------------------------------------------------------------------------
 117   12:00   60.7    19    4.1    12     12.3    857     0.00     428    53.8
 117   13:00   63.2    18    4.3     8     12.6    856     0.00     420    57.3
 117   14:00   64.7    17    3.9    11     10.4    856     0.00     384    61.0
 117   15:00   66.8    16    3.0    17     10.4    855     0.00     326    64.2
 117   16:00   67.5    15    4.2    21     11.0    854     0.00     249    66.9
 117   17:00   68.1    14    5.0    18     11.6    854     0.00     161    68.5
 117   18:00   67.4    14    5.1    36     10.3    854     0.00      72    69.0
 117   19:00   64.2    16    4.3    61      8.1    854     0.00       7    68.5
 117   20:00   59.4    20    4.4    79      7.7    854     0.00       0    67.1
 117   21:00   51.7    31    2.9   195      6.6    855     0.00       0    65.4
 117   22:00   48.0    36    1.9   134      5.0    855     0.00       0    63.7
 117   23:00   53.3    26    3.2    47      7.3    856     0.00       0    62.2
 118    0:00   46.4    36    3.7   193      6.4    856     0.00       0    60.8
 118    1:00   42.2    45    4.3   206      8.1    856     0.00       0    59.6
 118    2:00   41.6    45    4.8   175      7.4    856     0.00       0    58.4
 118    3:00   43.5    40    4.6   154      6.9    856     0.00       0    57.2
 118    4:00   42.4    42    2.8   139      6.7    856     0.00       0    56.2
 118    5:00   36.6    55    1.4    50      3.7    857     0.00       0    55.3
 118    6:00   38.9    51    1.0    55      2.5    857     0.00      14    54.4
 118    7:00   48.5    34    1.2   360      4.2    857     0.00     122    53.6
 118    8:00   53.0    30    1.2   329      3.9    858     0.00     218    53.5
 118    9:00   58.4    24    1.5   298      4.5    857     0.00     301    54.0
 118   10:00   63.3    19    2.0   343      5.6    857     0.00     368    55.0
 118   11:00   67.6    16    3.9   206      9.1    856     0.00     412    56.4

Return to Nyala, Nevada graphs page.


Western Regional Climate Center,wrcc@dri.edu